createdAt,value
2019-04-11T03:02:44.470Z,14.00
2019-04-11T03:05:13.782Z,13.97
2019-04-11T03:07:42.620Z,13.30
2019-04-11T03:10:13.761Z,12.83
2019-04-11T03:12:43.550Z,13.00
2019-04-11T03:15:28.866Z,13.83
2019-04-11T03:17:44.629Z,13.67
2019-04-11T03:20:23.011Z,14.00
2019-04-11T03:22:44.767Z,14.57
2019-04-11T03:25:13.763Z,14.13
2019-04-11T03:27:43.279Z,13.70
2019-04-11T03:30:19.593Z,13.80
2019-04-11T03:36:10.801Z,13.43
2019-04-11T03:38:03.728Z,13.87
2019-04-11T03:40:33.512Z,13.87
2019-04-11T03:42:59.445Z,13.07
2019-04-11T03:45:32.556Z,14.07
2019-04-11T03:48:04.027Z,13.40
2019-04-11T03:50:20.710Z,13.30
2019-04-11T03:52:45.836Z,12.47
2019-04-11T03:55:15.208Z,12.93
2019-04-11T03:57:44.313Z,14.43
2019-04-11T04:00:14.970Z,13.90
2019-04-11T04:02:44.409Z,13.77
2019-04-11T04:05:13.302Z,13.77
2019-04-11T04:07:42.013Z,14.43
2019-04-11T04:10:13.118Z,14.73
2019-04-11T04:12:43.084Z,13.57
2019-04-11T04:15:47.149Z,12.83
2019-04-11T04:18:29.712Z,13.63
2019-04-11T04:21:10.948Z,13.13
2019-04-11T04:23:43.356Z,14.00
2019-04-11T04:26:12.409Z,13.93
2019-04-11T04:28:42.772Z,13.23
2019-04-11T04:31:11.733Z,14.33
2019-04-11T04:33:40.448Z,13.90
2019-04-11T04:36:11.014Z,15.77
2019-04-11T04:38:41.361Z,14.20
2019-04-11T04:41:23.931Z,13.83
2019-04-11T04:43:41.385Z,13.50
2019-04-11T04:46:28.042Z,15.10
2019-04-11T04:48:43.336Z,13.90
2019-04-11T04:51:15.234Z,14.77
2019-04-11T04:53:43.009Z,13.43
2019-04-11T04:56:13.439Z,13.93
2019-04-11T04:58:42.199Z,15.57
2019-04-11T05:01:12.507Z,14.90
2019-04-11T05:03:42.364Z,15.03
2019-04-11T05:06:11.964Z,14.87
2019-04-11T05:08:41.023Z,14.27
2019-04-11T05:11:10.154Z,13.50
2019-04-11T05:13:40.455Z,14.47
2019-04-11T05:16:17.214Z,14.30
2019-04-11T05:18:39.746Z,13.90
2019-04-11T05:21:08.646Z,14.10
2019-04-11T05:23:37.604Z,14.87
2019-04-11T05:26:06.894Z,15.07
2019-04-11T05:28:35.642Z,14.83
2019-04-11T05:31:04.306Z,14.97
2019-04-11T05:33:32.910Z,15.40
2019-04-11T05:36:01.590Z,14.37
2019-04-11T05:38:30.261Z,14.53
2019-04-11T05:40:58.834Z,14.53
2019-04-11T05:43:31.464Z,15.33
2019-04-11T05:45:58.319Z,14.93
2019-04-11T05:48:41.031Z,15.73
2019-04-11T05:51:10.931Z,14.73
2019-04-11T05:53:39.660Z,14.63
2019-04-11T05:56:09.152Z,14.50
2019-04-11T05:58:42.214Z,14.43
2019-04-11T06:01:20.413Z,13.93
2019-04-11T06:03:50.956Z,14.13
2019-04-11T06:06:34.922Z,15.37
2019-04-11T06:09:07.738Z,14.40
2019-04-11T06:11:53.449Z,15.20
2019-04-11T06:14:39.886Z,14.80
2019-04-11T06:17:11.490Z,16.13
2019-04-11T06:19:50.676Z,15.10
2019-04-11T06:22:19.885Z,15.50
2019-04-11T06:25:09.182Z,15.13
2019-04-11T06:27:47.406Z,15.87
2019-04-11T06:30:34.640Z,15.07
2019-04-11T06:33:20.769Z,15.73
2019-04-11T06:36:09.544Z,15.10
2019-04-11T06:38:45.560Z,14.87
2019-04-11T06:41:32.806Z,16.00
2019-04-11T06:44:25.817Z,15.03
2019-04-11T06:47:16.697Z,15.50
2019-04-11T06:50:02.799Z,15.60
2019-04-11T06:52:32.623Z,15.77
2019-04-11T06:55:26.955Z,15.07
2019-04-11T06:58:01.074Z,15.33
2019-04-11T07:00:31.425Z,16.17
2019-04-11T07:03:01.354Z,15.80
2019-04-11T07:05:33.166Z,16.47
2019-04-11T07:08:02.288Z,15.50
2019-04-11T07:10:39.009Z,15.60
2019-04-11T07:13:20.842Z,14.73
2019-04-11T07:15:52.868Z,14.87
2019-04-11T07:18:40.026Z,13.83
2019-04-11T07:21:10.722Z,16.23
2019-04-11T07:23:57.618Z,17.57
2019-04-11T07:26:45.736Z,16.07
2019-04-11T07:29:33.562Z,14.77
2019-04-11T07:32:22.235Z,15.47
2019-04-11T07:35:08.953Z,15.47
2019-04-11T07:37:38.949Z,15.83
2019-04-11T07:40:28.821Z,15.27
2019-04-11T07:43:19.640Z,15.60
2019-04-11T07:46:27.140Z,15.83
2019-04-11T07:49:06.227Z,15.03
2019-04-11T07:51:36.742Z,15.40
2019-04-11T07:54:16.286Z,15.90
2019-04-11T07:57:06.879Z,15.30
2019-04-11T07:59:55.696Z,16.33
2019-04-11T08:02:43.517Z,16.53
2019-04-11T08:05:30.240Z,17.77
2019-04-11T08:08:30.374Z,17.03
2019-04-11T08:11:20.886Z,15.97
2019-04-11T08:14:02.368Z,16.63
2019-04-11T08:16:59.520Z,17.47
2019-04-11T08:19:53.505Z,16.40
2019-04-11T08:22:35.861Z,16.57
2019-04-11T08:25:23.211Z,17.23
2019-04-11T08:28:02.365Z,17.03
2019-04-11T08:30:34.997Z,16.63
2019-04-11T08:33:04.541Z,18.43
2019-04-11T08:35:54.000Z,17.53
2019-04-11T08:38:25.055Z,16.53
2019-04-11T08:40:58.937Z,17.50
2019-04-11T08:43:31.165Z,17.67
2019-04-11T08:46:12.882Z,17.77
2019-04-11T08:48:44.240Z,17.40
2019-04-11T08:51:14.853Z,17.33
2019-04-11T08:54:01.473Z,16.70
2019-04-11T08:56:31.299Z,17.97
2019-04-11T08:59:49.383Z,16.67
2019-04-11T09:02:40.798Z,39.90
2019-04-11T09:05:43.934Z,17.40
2019-04-11T09:08:32.171Z,16.27
2019-04-11T09:11:18.611Z,16.67
2019-04-11T09:14:13.681Z,17.90
2019-04-11T09:17:01.669Z,16.27
2019-04-11T09:19:45.474Z,17.43
2019-04-11T09:22:31.647Z,17.90
2019-04-11T09:25:28.959Z,17.67
2019-04-11T09:28:09.166Z,17.20
2019-04-11T09:30:57.042Z,17.43
2019-04-11T09:33:57.549Z,16.53
2019-04-11T09:36:45.159Z,17.17
2019-04-11T09:39:24.307Z,16.83
2019-04-11T09:42:07.177Z,18.23
2019-04-11T09:44:53.054Z,18.13
2019-04-11T09:47:40.842Z,17.70
2019-04-11T09:50:11.995Z,18.40
2019-04-11T09:52:45.215Z,17.40
2019-04-11T09:55:37.574Z,16.73
2019-04-11T09:58:23.139Z,17.97
2019-04-11T10:01:24.578Z,18.37
2019-04-11T10:03:53.158Z,17.40
2019-04-11T10:06:44.675Z,18.83
2019-04-11T10:09:13.600Z,18.87
2019-04-11T10:12:00.185Z,19.20
2019-04-11T10:14:31.400Z,18.57
2019-04-11T10:17:20.753Z,18.30
2019-04-11T10:19:56.951Z,18.33
2019-04-11T10:22:48.055Z,17.97
2019-04-11T10:25:21.212Z,18.70
2019-04-11T10:28:09.107Z,18.53
2019-04-11T10:30:55.822Z,19.87
2019-04-11T10:33:42.344Z,18.27
2019-04-11T10:36:31.550Z,19.60
2019-04-11T10:39:35.579Z,20.03
2019-04-11T10:42:08.501Z,18.73
2019-04-11T10:45:10.011Z,18.77
2019-04-11T10:47:38.821Z,19.93
2019-04-11T10:50:34.065Z,19.73
2019-04-11T10:53:04.040Z,19.73
2019-04-11T10:55:54.774Z,18.33
2019-04-11T10:58:28.865Z,19.43
2019-04-11T11:01:17.686Z,19.70
2019-04-11T11:03:52.018Z,18.97
2019-04-11T11:06:23.991Z,20.40
2019-04-11T11:09:14.870Z,20.10
2019-04-11T11:11:52.722Z,20.90
2019-04-11T11:14:52.402Z,21.30
2019-04-11T11:18:00.907Z,22.20
2019-04-11T11:20:34.722Z,20.60
2019-04-11T11:23:27.302Z,19.73
2019-04-11T11:26:04.781Z,20.53
2019-04-11T11:28:36.683Z,21.07
2019-04-11T11:31:14.132Z,21.33
2019-04-11T11:33:44.904Z,22.17
2019-04-11T11:36:34.823Z,21.33
2019-04-11T11:39:12.940Z,20.77
2019-04-11T11:42:01.958Z,20.60
2019-04-11T11:44:37.139Z,21.53
2019-04-11T11:47:38.024Z,20.40
2019-04-11T11:50:06.593Z,22.07
2019-04-11T11:53:08.169Z,21.53
2019-04-11T11:55:37.754Z,20.67
2019-04-11T11:58:31.487Z,20.07
2019-04-11T12:01:03.614Z,21.50
2019-04-11T12:04:04.971Z,22.30
2019-04-11T12:06:33.938Z,20.27
2019-04-11T12:09:20.406Z,20.10
2019-04-11T12:11:53.970Z,20.57
2019-04-11T12:14:43.390Z,21.43
2019-04-11T12:17:21.351Z,19.53
2019-04-11T12:20:04.987Z,21.33
2019-04-11T12:22:28.596Z,22.03
2019-04-11T12:25:12.523Z,20.57
2019-04-11T12:27:56.402Z,21.57
2019-04-11T12:30:34.415Z,21.60
2019-04-11T12:33:17.341Z,22.53
2019-04-11T12:35:48.756Z,20.33
2019-04-11T12:38:24.767Z,21.90
2019-04-11T12:41:14.171Z,21.60
2019-04-11T12:43:55.699Z,21.83
2019-04-11T12:46:42.554Z,20.83
2019-04-11T12:49:24.386Z,22.57
2019-04-11T12:52:10.954Z,23.83
2019-04-11T12:54:40.322Z,21.63
2019-04-11T12:57:40.063Z,23.40
2019-04-11T13:00:17.619Z,22.48
2019-04-11T13:03:11.407Z,20.72
2019-04-11T13:05:40.778Z,20.08
2019-04-11T13:08:27.065Z,21.40
2019-04-11T13:10:55.664Z,21.57
2019-04-11T13:13:30.263Z,22.00
2019-04-11T13:16:12.289Z,22.37
2019-04-11T13:18:59.475Z,21.93
2019-04-11T13:21:53.360Z,22.35
2019-04-11T13:24:47.331Z,21.45
2019-04-11T13:27:28.017Z,23.47
2019-04-11T13:30:18.787Z,26.87
2019-04-11T13:32:52.014Z,26.23
2019-04-11T13:35:27.239Z,23.92
2019-04-11T13:38:03.826Z,22.35
2019-04-11T13:40:54.585Z,23.03
2019-04-11T13:43:45.139Z,22.58
2019-04-11T13:46:32.791Z,23.30
2019-04-11T13:49:07.797Z,23.30
2019-04-11T13:51:45.259Z,24.40
2019-04-11T13:54:39.162Z,22.67
2019-04-11T13:57:25.822Z,23.10
2019-04-11T14:00:12.518Z,23.27
2019-04-11T14:02:54.134Z,22.60
2019-04-11T14:05:22.758Z,23.47
2019-04-11T14:07:51.606Z,24.20
2019-04-11T14:10:20.574Z,24.80
2019-04-11T14:12:49.166Z,23.83
2019-04-11T14:15:21.147Z,23.67
2019-04-11T14:18:11.497Z,23.83
2019-04-11T14:20:42.625Z,23.00
2019-04-11T14:23:33.334Z,21.33
2019-04-11T14:26:21.774Z,21.97
2019-04-11T14:29:12.363Z,22.13
2019-04-11T14:31:54.077Z,22.30
2019-04-11T14:34:38.086Z,20.80
2019-04-11T14:37:26.002Z,21.53
2019-04-11T14:39:59.008Z,21.80
2019-04-11T14:43:05.331Z,22.33
2019-04-11T14:45:53.011Z,23.03
2019-04-11T14:48:37.864Z,21.23
2019-04-11T14:51:16.062Z,21.07
2019-04-11T14:54:11.696Z,22.33
2019-04-11T14:56:44.786Z,22.03
2019-04-11T14:59:24.748Z,21.70
2019-04-11T15:01:57.311Z,22.07
2019-04-11T15:04:56.988Z,22.27
2019-04-11T15:07:25.618Z,22.80
2019-04-11T15:09:59.053Z,24.60
2019-04-11T15:12:29.439Z,22.00
2019-04-11T15:15:23.702Z,23.47
2019-04-11T15:17:55.944Z,22.00
2019-04-11T15:20:54.215Z,49.47
2019-04-11T15:23:32.354Z,22.03
2019-04-11T15:26:20.444Z,20.90
2019-04-11T15:29:13.822Z,21.87
2019-04-11T15:32:02.083Z,22.20
2019-04-11T15:34:36.763Z,20.87
2019-04-11T15:37:18.211Z,20.30
2019-04-11T15:40:04.115Z,22.33
2019-04-11T15:42:42.410Z,21.23
2019-04-11T15:45:27.326Z,22.27
2019-04-11T15:48:13.671Z,22.00
2019-04-11T15:51:06.484Z,21.43
2019-04-11T15:53:42.482Z,21.07
2019-04-11T15:56:29.131Z,21.57
2019-04-11T15:59:03.919Z,21.53
2019-04-11T16:02:01.074Z,20.93
2019-04-11T16:04:52.358Z,21.43
2019-04-11T16:07:46.138Z,21.57
2019-04-11T16:10:14.731Z,21.00
2019-04-11T16:12:51.323Z,20.77
2019-04-11T16:15:19.911Z,21.00
2019-04-11T16:18:20.911Z,20.87
2019-04-11T16:20:52.587Z,20.37
2019-04-11T16:23:31.433Z,20.70
2019-04-11T16:26:00.022Z,20.10
2019-04-11T16:28:46.579Z,20.90
2019-04-11T16:31:15.145Z,21.47
2019-04-11T16:34:05.675Z,21.03
2019-04-11T16:36:59.639Z,21.37
2019-04-11T16:39:52.165Z,20.47
2019-04-11T16:42:45.311Z,21.17
2019-04-11T16:45:38.863Z,19.63
2019-04-11T16:48:07.488Z,19.80
2019-04-11T16:50:36.046Z,20.30
2019-04-11T16:53:04.708Z,20.97
2019-04-11T16:55:33.311Z,19.17
2019-04-11T16:58:01.899Z,20.40
2019-04-11T17:00:30.482Z,19.33
2019-04-11T17:02:59.109Z,19.83
2019-04-11T17:05:27.664Z,18.80
2019-04-11T17:08:18.473Z,18.67
2019-04-11T17:11:08.251Z,18.37
2019-04-11T17:13:36.832Z,17.97
2019-04-11T17:16:07.858Z,18.67
2019-04-11T17:18:36.426Z,18.97
2019-04-11T17:21:07.834Z,19.30
2019-04-11T17:23:35.326Z,19.57
2019-04-11T17:26:06.047Z,49.33
2019-04-11T17:28:35.450Z,32.57
2019-04-11T17:31:04.049Z,26.13
2019-04-11T17:33:33.254Z,58.03
2019-04-11T17:36:02.897Z,77.77
2019-04-11T17:38:31.898Z,145.43
2019-04-11T17:41:00.502Z,91.10
2019-04-11T17:43:29.228Z,43.27
2019-04-11T17:45:57.906Z,52.80
2019-04-11T17:48:26.486Z,30.10
2019-04-11T17:50:55.130Z,26.93
2019-04-11T17:53:24.873Z,22.80
2019-04-11T17:55:54.897Z,18.93
2019-04-11T17:58:26.966Z,19.30
2019-04-11T18:01:00.392Z,16.10
2019-04-11T18:03:30.326Z,17.47
2019-04-11T18:05:58.975Z,17.67
2019-04-11T18:08:27.866Z,16.90
2019-04-11T18:10:56.703Z,17.40
2019-04-11T18:13:25.483Z,17.00
2019-04-11T18:15:54.050Z,17.27
2019-04-11T18:18:22.615Z,16.97
2019-04-11T18:20:51.307Z,17.43
2019-04-11T18:23:20.342Z,17.20
2019-04-11T18:25:51.134Z,17.63
2019-04-11T18:28:21.884Z,17.03
2019-04-11T18:30:53.814Z,19.03
2019-04-11T18:33:20.503Z,18.03
2019-04-11T18:35:49.060Z,17.80
2019-04-11T18:38:17.728Z,18.20
2019-04-11T18:40:46.390Z,17.73
2019-04-11T18:43:16.207Z,17.90
2019-04-11T18:45:45.531Z,18.93
2019-04-11T18:48:14.195Z,18.43
2019-04-11T18:50:42.782Z,17.67
2019-04-11T18:53:11.350Z,17.27
2019-04-11T18:55:39.910Z,16.80
2019-04-11T18:58:08.498Z,17.40
2019-04-11T19:00:38.314Z,16.57
2019-04-11T19:03:08.019Z,17.07
2019-04-11T19:05:37.678Z,17.47
2019-04-11T19:08:06.411Z,17.80
2019-04-11T19:10:35.266Z,17.60
2019-04-11T19:13:03.832Z,19.03
2019-04-11T19:15:32.406Z,16.97
2019-04-11T19:18:06.805Z,17.23
2019-04-11T19:20:31.364Z,17.83
2019-04-11T19:23:00.019Z,18.23
2019-04-11T19:25:28.618Z,18.90
2019-04-11T19:27:57.438Z,18.43
2019-04-11T19:30:26.388Z,17.93
2019-04-11T19:32:55.823Z,17.70
2019-04-11T19:35:24.746Z,17.37
2019-04-11T19:37:53.302Z,18.13
2019-04-11T19:40:22.035Z,17.53
2019-04-11T19:42:50.587Z,17.80
2019-04-11T19:45:20.124Z,17.30
2019-04-11T19:47:51.721Z,16.00
2019-04-11T19:50:19.203Z,17.27
2019-04-11T19:52:47.787Z,16.60
2019-04-11T19:55:27.958Z,17.70
2019-04-11T19:57:56.547Z,17.07
2019-04-11T20:00:25.185Z,16.83
2019-04-11T20:02:54.148Z,16.00
2019-04-11T20:05:23.358Z,16.17
2019-04-11T20:07:51.943Z,16.60
2019-04-11T20:10:20.538Z,16.20
2019-04-11T20:12:49.094Z,15.47
2019-04-11T20:15:17.662Z,15.77
2019-04-11T20:17:51.091Z,14.87
2019-04-11T20:20:16.522Z,14.97
2019-04-11T20:22:45.124Z,15.17
2019-04-11T20:25:16.203Z,14.90
2019-04-11T20:27:44.290Z,15.87
2019-04-11T20:30:13.403Z,15.57
2019-04-11T20:32:41.971Z,15.50
2019-04-11T20:35:10.555Z,16.00
2019-04-11T20:37:42.230Z,15.57
2019-04-11T20:40:09.482Z,16.53
2019-04-11T20:42:38.054Z,15.17
2019-04-11T20:45:06.667Z,15.67
2019-04-11T20:47:35.284Z,15.23
2019-04-11T20:50:07.803Z,15.30
2019-04-11T20:52:34.457Z,15.60
2019-04-11T20:55:03.038Z,14.67
2019-04-11T20:57:31.598Z,15.23
2019-04-11T21:00:00.194Z,15.37
2019-04-11T21:02:29.249Z,14.60
2019-04-11T21:04:58.990Z,15.43
2019-04-11T21:07:31.815Z,15.20
2019-04-11T21:09:58.474Z,16.33
2019-04-11T21:12:27.115Z,15.23
2019-04-11T21:14:55.674Z,16.47
2019-04-11T21:17:24.252Z,16.00
2019-04-11T21:19:53.331Z,14.23
2019-04-11T21:22:24.190Z,15.50
2019-04-11T21:24:52.714Z,15.13
2019-04-11T21:27:21.294Z,15.63
2019-04-11T21:29:49.854Z,16.23
2019-04-11T21:32:18.548Z,15.70
2019-04-11T21:34:47.450Z,16.40
2019-04-11T21:37:16.346Z,16.10
2019-04-11T21:39:44.906Z,15.47
2019-04-11T21:42:13.812Z,15.07
2019-04-11T21:44:42.690Z,15.23
2019-04-11T21:47:11.258Z,13.87
2019-04-11T21:49:39.834Z,14.93
2019-04-11T21:52:11.999Z,13.47
2019-04-11T21:54:38.671Z,14.30
2019-04-11T21:57:07.252Z,13.70
2019-04-11T21:59:36.126Z,12.40
